sensor_id;sensor_type;location;lat;lon;timestamp;temperature;humidity
51878;SHT31;37911;51.526;11.536;2022-12-20T00:02:56;4.22;86.91
51878;SHT31;37911;51.526;11.536;2022-12-20T00:06:00;4.28;86.85
51878;SHT31;37911;51.526;11.536;2022-12-20T00:09:05;4.33;86.53
51878;SHT31;37911;51.526;11.536;2022-12-20T00:12:09;4.17;86.96
51878;SHT31;37911;51.526;11.536;2022-12-20T00:15:15;4.27;86.93
51878;SHT31;37911;51.526;11.536;2022-12-20T00:18:19;4.18;87.12
51878;SHT31;37911;51.526;11.536;2022-12-20T00:21:22;4.17;87.49
51878;SHT31;37911;51.526;11.536;2022-12-20T00:24:26;4.27;87.45
51878;SHT31;37911;51.526;11.536;2022-12-20T00:27:29;4.24;87.67
51878;SHT31;37911;51.526;11.536;2022-12-20T00:30:35;4.27;87.80
51878;SHT31;37911;51.526;11.536;2022-12-20T00:33:39;4.34;87.82
51878;SHT31;37911;51.526;11.536;2022-12-20T00:36:44;4.40;87.51
51878;SHT31;37911;51.526;11.536;2022-12-20T00:39:47;4.47;87.35
51878;SHT31;37911;51.526;11.536;2022-12-20T00:42:50;4.42;87.43
51878;SHT31;37911;51.526;11.536;2022-12-20T00:45:56;4.34;87.62
51878;SHT31;37911;51.526;11.536;2022-12-20T00:49:00;4.40;87.49
51878;SHT31;37911;51.526;11.536;2022-12-20T00:52:04;4.40;87.49
51878;SHT31;37911;51.526;11.536;2022-12-20T00:55:08;4.38;87.57
51878;SHT31;37911;51.526;11.536;2022-12-20T00:58:12;4.44;87.66
51878;SHT31;37911;51.526;11.536;2022-12-20T01:01:21;4.50;87.57
51878;SHT31;37911;51.526;11.536;2022-12-20T01:04:25;4.42;87.52
51878;SHT31;37911;51.526;11.536;2022-12-20T01:07:28;4.38;87.66
51878;SHT31;37911;51.526;11.536;2022-12-20T01:10:32;4.45;87.56
51878;SHT31;37911;51.526;11.536;2022-12-20T01:13:37;4.37;87.71
51878;SHT31;37911;51.526;11.536;2022-12-20T01:16:45;4.30;87.90
51878;SHT31;37911;51.526;11.536;2022-12-20T01:19:48;4.37;87.89
51878;SHT31;37911;51.526;11.536;2022-12-20T01:22:52;4.22;87.91
51878;SHT31;37911;51.526;11.536;2022-12-20T01:25:57;4.21;88.04
51878;SHT31;37911;51.526;11.536;2022-12-20T01:29:00;4.17;88.20
51878;SHT31;37911;51.526;11.536;2022-12-20T01:32:07;4.16;88.42
51878;SHT31;37911;51.526;11.536;2022-12-20T01:35:11;4.14;88.44
51878;SHT31;37911;51.526;11.536;2022-12-20T01:38:15;4.14;88.65
51878;SHT31;37911;51.526;11.536;2022-12-20T01:41:20;4.09;88.94
51878;SHT31;37911;51.526;11.536;2022-12-20T01:44:54;4.10;89.17
51878;SHT31;37911;51.526;11.536;2022-12-20T01:48:00;4.03;89.30
51878;SHT31;37911;51.526;11.536;2022-12-20T01:51:04;4.06;89.37
51878;SHT31;37911;51.526;11.536;2022-12-20T01:54:13;4.04;89.46
51878;SHT31;37911;51.526;11.536;2022-12-20T01:57:20;4.11;89.46
51878;SHT31;37911;51.526;11.536;2022-12-20T02:00:24;4.11;89.55
51878;SHT31;37911;51.526;11.536;2022-12-20T02:03:31;4.14;89.54
51878;SHT31;37911;51.526;11.536;2022-12-20T02:06:34;4.27;89.06
51878;SHT31;37911;51.526;11.536;2022-12-20T02:09:38;4.25;89.07
51878;SHT31;37911;51.526;11.536;2022-12-20T02:12:44;4.25;89.19
51878;SHT31;37911;51.526;11.536;2022-12-20T02:15:51;4.24;89.38
51878;SHT31;37911;51.526;11.536;2022-12-20T02:19:02;4.21;89.42
51878;SHT31;37911;51.526;11.536;2022-12-20T02:22:15;4.24;89.45
51878;SHT31;37911;51.526;11.536;2022-12-20T02:25:38;4.30;89.42
51878;SHT31;37911;51.526;11.536;2022-12-20T02:28:59;4.38;89.46
51878;SHT31;37911;51.526;11.536;2022-12-20T02:32:11;4.45;89.10
51878;SHT31;37911;51.526;11.536;2022-12-20T02:35:20;4.47;89.28
51878;SHT31;37911;51.526;11.536;2022-12-20T02:38:28;4.51;88.89
51878;SHT31;37911;51.526;11.536;2022-12-20T02:41:36;4.51;88.92
51878;SHT31;37911;51.526;11.536;2022-12-20T02:44:52;4.52;89.03
51878;SHT31;37911;51.526;11.536;2022-12-20T02:48:12;4.48;89.18
51878;SHT31;37911;51.526;11.536;2022-12-20T02:51:17;4.62;89.22
51878;SHT31;37911;51.526;11.536;2022-12-20T02:54:22;4.69;89.12
51878;SHT31;37911;51.526;11.536;2022-12-20T02:57:30;4.65;88.93
51878;SHT31;37911;51.526;11.536;2022-12-20T03:00:39;4.67;89.07
51878;SHT31;37911;51.526;11.536;2022-12-20T03:03:47;4.81;88.88
51878;SHT31;37911;51.526;11.536;2022-12-20T03:06:57;4.99;88.44
51878;SHT31;37911;51.526;11.536;2022-12-20T03:10:01;5.08;88.12
51878;SHT31;37911;51.526;11.536;2022-12-20T03:13:05;5.00;88.25
51878;SHT31;37911;51.526;11.536;2022-12-20T03:16:11;4.99;88.47
51878;SHT31;37911;51.526;11.536;2022-12-20T03:19:18;5.08;88.72
51878;SHT31;37911;51.526;11.536;2022-12-20T03:22:21;4.99;88.71
51878;SHT31;37911;51.526;11.536;2022-12-20T03:25:25;5.00;88.83
51878;SHT31;37911;51.526;11.536;2022-12-20T03:28:30;4.92;88.92
51878;SHT31;37911;51.526;11.536;2022-12-20T03:31:33;4.86;89.10
51878;SHT31;37911;51.526;11.536;2022-12-20T03:34:40;4.89;89.25
51878;SHT31;37911;51.526;11.536;2022-12-20T03:37:45;4.93;89.47
51878;SHT31;37911;51.526;11.536;2022-12-20T03:40:48;4.99;89.44
51878;SHT31;37911;51.526;11.536;2022-12-20T03:43:54;4.99;89.36
51878;SHT31;37911;51.526;11.536;2022-12-20T03:46:59;4.95;89.44
51878;SHT31;37911;51.526;11.536;2022-12-20T03:50:07;4.83;89.68
51878;SHT31;37911;51.526;11.536;2022-12-20T03:53:11;4.82;89.87
51878;SHT31;37911;51.526;11.536;2022-12-20T03:56:18;4.86;89.50
51878;SHT31;37911;51.526;11.536;2022-12-20T03:59:21;4.81;89.55
51878;SHT31;37911;51.526;11.536;2022-12-20T04:02:26;4.91;89.40
51878;SHT31;37911;51.526;11.536;2022-12-20T04:05:32;4.93;89.17
51878;SHT31;37911;51.526;11.536;2022-12-20T04:08:36;4.92;89.44
51878;SHT31;37911;51.526;11.536;2022-12-20T04:11:40;4.93;89.40
51878;SHT31;37911;51.526;11.536;2022-12-20T04:14:47;4.96;89.00
51878;SHT31;37911;51.526;11.536;2022-12-20T04:17:50;4.82;89.06
51878;SHT31;37911;51.526;11.536;2022-12-20T04:20:58;4.81;89.40
51878;SHT31;37911;51.526;11.536;2022-12-20T04:24:05;4.71;89.61
51878;SHT31;37911;51.526;11.536;2022-12-20T04:27:21;4.62;89.78
51878;SHT31;37911;51.526;11.536;2022-12-20T04:30:27;4.52;89.93
51878;SHT31;37911;51.526;11.536;2022-12-20T04:33:31;4.51;90.05
51878;SHT31;37911;51.526;11.536;2022-12-20T04:36:37;4.57;90.20
51878;SHT31;37911;51.526;11.536;2022-12-20T04:39:47;4.65;89.90
51878;SHT31;37911;51.526;11.536;2022-12-20T04:42:57;4.72;89.28
51878;SHT31;37911;51.526;11.536;2022-12-20T04:46:00;4.62;89.34
51878;SHT31;37911;51.526;11.536;2022-12-20T04:49:04;4.58;89.31
51878;SHT31;37911;51.526;11.536;2022-12-20T04:52:14;4.47;89.56
51878;SHT31;37911;51.526;11.536;2022-12-20T04:55:35;4.40;89.84
51878;SHT31;37911;51.526;11.536;2022-12-20T04:58:39;4.48;89.96
51878;SHT31;37911;51.526;11.536;2022-12-20T05:01:44;4.45;90.14
51878;SHT31;37911;51.526;11.536;2022-12-20T05:04:54;4.52;90.23
51878;SHT31;37911;51.526;11.536;2022-12-20T05:08:01;4.68;90.64
51878;SHT31;37911;51.526;11.536;2022-12-20T05:11:05;4.82;90.68
51878;SHT31;37911;51.526;11.536;2022-12-20T05:14:10;5.12;90.44
51878;SHT31;37911;51.526;11.536;2022-12-20T05:17:13;5.33;90.12
51878;SHT31;37911;51.526;11.536;2022-12-20T05:20:17;5.63;89.41
51878;SHT31;37911;51.526;11.536;2022-12-20T05:23:24;5.70;89.00
51878;SHT31;37911;51.526;11.536;2022-12-20T05:26:47;5.66;89.05
51878;SHT31;37911;51.526;11.536;2022-12-20T05:29:52;5.61;88.98
51878;SHT31;37911;51.526;11.536;2022-12-20T05:32:56;5.66;89.37
51878;SHT31;37911;51.526;11.536;2022-12-20T05:36:00;5.61;89.18
51878;SHT31;37911;51.526;11.536;2022-12-20T05:39:06;5.67;88.96
51878;SHT31;37911;51.526;11.536;2022-12-20T05:42:14;5.80;88.54
51878;SHT31;37911;51.526;11.536;2022-12-20T05:45:18;5.94;88.38
51878;SHT31;37911;51.526;11.536;2022-12-20T05:48:27;6.00;88.40
51878;SHT31;37911;51.526;11.536;2022-12-20T05:51:31;6.05;88.01
51878;SHT31;37911;51.526;11.536;2022-12-20T05:54:45;6.01;87.79
51878;SHT31;37911;51.526;11.536;2022-12-20T05:57:51;5.88;87.82
51878;SHT31;37911;51.526;11.536;2022-12-20T06:01:07;5.88;88.05
51878;SHT31;37911;51.526;11.536;2022-12-20T06:04:12;5.86;88.21
51878;SHT31;37911;51.526;11.536;2022-12-20T06:07:16;5.88;88.28
51878;SHT31;37911;51.526;11.536;2022-12-20T06:10:27;5.88;88.25
51878;SHT31;37911;51.526;11.536;2022-12-20T06:13:31;5.81;88.42
51878;SHT31;37911;51.526;11.536;2022-12-20T06:16:34;5.73;88.42
51878;SHT31;37911;51.526;11.536;2022-12-20T06:19:40;5.81;88.01
51878;SHT31;37911;51.526;11.536;2022-12-20T06:22:46;5.83;87.98
51878;SHT31;37911;51.526;11.536;2022-12-20T06:25:52;5.71;88.11
51878;SHT31;37911;51.526;11.536;2022-12-20T06:28:56;5.78;88.42
51878;SHT31;37911;51.526;11.536;2022-12-20T06:32:15;5.86;88.21
51878;SHT31;37911;51.526;11.536;2022-12-20T06:35:19;5.83;88.20
51878;SHT31;37911;51.526;11.536;2022-12-20T06:38:23;5.83;87.88
51878;SHT31;37911;51.526;11.536;2022-12-20T06:41:31;5.68;88.13
51878;SHT31;37911;51.526;11.536;2022-12-20T06:44:35;5.60;88.36
51878;SHT31;37911;51.526;11.536;2022-12-20T06:47:39;5.67;88.54
51878;SHT31;37911;51.526;11.536;2022-12-20T06:50:43;5.58;88.72
51878;SHT31;37911;51.526;11.536;2022-12-20T06:53:48;5.58;89.12
51878;SHT31;37911;51.526;11.536;2022-12-20T06:56:54;5.71;89.13
51878;SHT31;37911;51.526;11.536;2022-12-20T07:00:02;5.48;88.89
51878;SHT31;37911;51.526;11.536;2022-12-20T07:03:09;5.30;89.14
51878;SHT31;37911;51.526;11.536;2022-12-20T07:06:12;5.35;89.78
51878;SHT31;37911;51.526;11.536;2022-12-20T07:09:16;5.47;89.81
51878;SHT31;37911;51.526;11.536;2022-12-20T07:12:23;5.56;89.80
51878;SHT31;37911;51.526;11.536;2022-12-20T07:15:26;5.60;89.77
51878;SHT31;37911;51.526;11.536;2022-12-20T07:18:30;5.57;89.59
51878;SHT31;37911;51.526;11.536;2022-12-20T07:21:34;5.54;89.53
51878;SHT31;37911;51.526;11.536;2022-12-20T07:24:39;5.40;89.42
51878;SHT31;37911;51.526;11.536;2022-12-20T07:27:48;5.20;89.56
51878;SHT31;37911;51.526;11.536;2022-12-20T07:30:53;5.23;89.89
51878;SHT31;37911;51.526;11.536;2022-12-20T07:33:58;5.18;90.26
51878;SHT31;37911;51.526;11.536;2022-12-20T07:37:02;5.13;90.25
51878;SHT31;37911;51.526;11.536;2022-12-20T07:40:07;5.12;90.33
51878;SHT31;37911;51.526;11.536;2022-12-20T07:43:13;5.08;90.28
51878;SHT31;37911;51.526;11.536;2022-12-20T07:46:18;5.06;90.47
51878;SHT31;37911;51.526;11.536;2022-12-20T07:49:22;5.12;90.61
51878;SHT31;37911;51.526;11.536;2022-12-20T07:52:27;5.18;90.41
51878;SHT31;37911;51.526;11.536;2022-12-20T07:55:31;5.22;90.07
51878;SHT31;37911;51.526;11.536;2022-12-20T07:58:41;5.16;90.13
51878;SHT31;37911;51.526;11.536;2022-12-20T08:01:46;5.26;89.97
51878;SHT31;37911;51.526;11.536;2022-12-20T08:04:51;5.26;89.77
51878;SHT31;37911;51.526;11.536;2022-12-20T08:07:58;5.23;89.83
51878;SHT31;37911;51.526;11.536;2022-12-20T08:11:02;5.29;89.82
51878;SHT31;37911;51.526;11.536;2022-12-20T08:14:09;5.42;89.37
51878;SHT31;37911;51.526;11.536;2022-12-20T08:17:13;5.46;89.01
51878;SHT31;37911;51.526;11.536;2022-12-20T08:20:19;5.44;88.98
51878;SHT31;37911;51.526;11.536;2022-12-20T08:23:23;5.37;88.97
51878;SHT31;37911;51.526;11.536;2022-12-20T08:26:26;5.46;89.12
51878;SHT31;37911;51.526;11.536;2022-12-20T08:29:32;5.39;89.33
51878;SHT31;37911;51.526;11.536;2022-12-20T08:32:36;5.26;89.43
51878;SHT31;37911;51.526;11.536;2022-12-20T08:35:40;5.36;89.33
51878;SHT31;37911;51.526;11.536;2022-12-20T08:38:45;5.50;89.32
51878;SHT31;37911;51.526;11.536;2022-12-20T08:41:49;5.39;89.48
51878;SHT31;37911;51.526;11.536;2022-12-20T08:44:55;5.44;89.57
51878;SHT31;37911;51.526;11.536;2022-12-20T08:47:58;5.42;89.71
51878;SHT31;37911;51.526;11.536;2022-12-20T08:51:04;5.44;89.73
51878;SHT31;37911;51.526;11.536;2022-12-20T08:54:08;5.57;89.72
51878;SHT31;37911;51.526;11.536;2022-12-20T08:57:12;5.71;89.24
51878;SHT31;37911;51.526;11.536;2022-12-20T09:00:19;5.80;89.00
51878;SHT31;37911;51.526;11.536;2022-12-20T09:03:22;5.87;88.83
51878;SHT31;37911;51.526;11.536;2022-12-20T09:06:26;5.83;89.24
51878;SHT31;37911;51.526;11.536;2022-12-20T09:09:29;5.88;89.36
51878;SHT31;37911;51.526;11.536;2022-12-20T09:12:35;5.91;89.64
51878;SHT31;37911;51.526;11.536;2022-12-20T09:15:41;6.00;89.13
51878;SHT31;37911;51.526;11.536;2022-12-20T09:18:47;5.95;89.16
51878;SHT31;37911;51.526;11.536;2022-12-20T09:21:51;5.90;89.04
51878;SHT31;37911;51.526;11.536;2022-12-20T09:24:54;5.90;88.86
51878;SHT31;37911;51.526;11.536;2022-12-20T09:27:58;5.84;89.33
51878;SHT31;37911;51.526;11.536;2022-12-20T09:31:06;6.14;88.86
51878;SHT31;37911;51.526;11.536;2022-12-20T09:34:12;6.11;88.67
51878;SHT31;37911;51.526;11.536;2022-12-20T09:37:18;6.21;88.20
51878;SHT31;37911;51.526;11.536;2022-12-20T09:40:26;6.28;87.98
51878;SHT31;37911;51.526;11.536;2022-12-20T09:43:32;6.25;88.39
51878;SHT31;37911;51.526;11.536;2022-12-20T09:46:39;6.31;88.11
51878;SHT31;37911;51.526;11.536;2022-12-20T09:49:44;6.21;88.25
51878;SHT31;37911;51.526;11.536;2022-12-20T09:53:00;6.26;88.21
51878;SHT31;37911;51.526;11.536;2022-12-20T09:56:12;6.31;88.02
51878;SHT31;37911;51.526;11.536;2022-12-20T09:59:18;6.33;87.77
51878;SHT31;37911;51.526;11.536;2022-12-20T10:02:25;6.28;87.91
51878;SHT31;37911;51.526;11.536;2022-12-20T10:05:35;6.15;88.02
51878;SHT31;37911;51.526;11.536;2022-12-20T10:08:44;6.05;88.12
51878;SHT31;37911;51.526;11.536;2022-12-20T10:11:55;6.04;88.25
51878;SHT31;37911;51.526;11.536;2022-12-20T10:15:18;5.94;88.52
51878;SHT31;37911;51.526;11.536;2022-12-20T10:18:43;5.88;88.87
51878;SHT31;37911;51.526;11.536;2022-12-20T10:21:52;5.91;89.01
51878;SHT31;37911;51.526;11.536;2022-12-20T10:25:01;5.95;89.17
51878;SHT31;37911;51.526;11.536;2022-12-20T10:28:11;5.91;89.09
51878;SHT31;37911;51.526;11.536;2022-12-20T10:31:17;5.84;89.18
51878;SHT31;37911;51.526;11.536;2022-12-20T10:34:23;5.78;89.48
51878;SHT31;37911;51.526;11.536;2022-12-20T10:37:26;5.71;89.37
51878;SHT31;37911;51.526;11.536;2022-12-20T10:40:32;5.70;89.50
51878;SHT31;37911;51.526;11.536;2022-12-20T10:43:41;5.66;89.61
51878;SHT31;37911;51.526;11.536;2022-12-20T10:46:47;5.68;89.73
51878;SHT31;37911;51.526;11.536;2022-12-20T10:50:07;5.77;89.74
51878;SHT31;37911;51.526;11.536;2022-12-20T10:53:19;5.83;89.74
51878;SHT31;37911;51.526;11.536;2022-12-20T10:56:25;6.05;89.19
51878;SHT31;37911;51.526;11.536;2022-12-20T10:59:34;6.22;87.90
51878;SHT31;37911;51.526;11.536;2022-12-20T11:02:39;6.21;87.85
51878;SHT31;37911;51.526;11.536;2022-12-20T11:05:55;6.22;87.84
51878;SHT31;37911;51.526;11.536;2022-12-20T11:09:20;6.31;87.72
51878;SHT31;37911;51.526;11.536;2022-12-20T11:12:26;6.41;87.21
51878;SHT31;37911;51.526;11.536;2022-12-20T11:15:31;6.41;87.21
51878;SHT31;37911;51.526;11.536;2022-12-20T11:18:41;6.52;86.94
51878;SHT31;37911;51.526;11.536;2022-12-20T11:21:53;6.52;86.84
51878;SHT31;37911;51.526;11.536;2022-12-20T11:25:12;6.49;86.84
51878;SHT31;37911;51.526;11.536;2022-12-20T11:28:47;6.53;86.65
51878;SHT31;37911;51.526;11.536;2022-12-20T11:32:01;6.56;86.66
51878;SHT31;37911;51.526;11.536;2022-12-20T11:35:10;6.59;86.75
51878;SHT31;37911;51.526;11.536;2022-12-20T11:38:26;6.61;86.71
51878;SHT31;37911;51.526;11.536;2022-12-20T11:41:37;6.61;86.74
51878;SHT31;37911;51.526;11.536;2022-12-20T11:44:52;6.66;86.26
51878;SHT31;37911;51.526;11.536;2022-12-20T11:48:19;6.62;86.54
51878;SHT31;37911;51.526;11.536;2022-12-20T11:51:28;6.69;86.35
51878;SHT31;37911;51.526;11.536;2022-12-20T11:54:40;6.68;86.36
51878;SHT31;37911;51.526;11.536;2022-12-20T11:57:51;6.65;86.18
51878;SHT31;37911;51.526;11.536;2022-12-20T12:00:59;6.62;86.19
51878;SHT31;37911;51.526;11.536;2022-12-20T12:04:11;6.65;86.19
51878;SHT31;37911;51.526;11.536;2022-12-20T12:07:18;6.73;85.69
51878;SHT31;37911;51.526;11.536;2022-12-20T12:10:30;6.72;85.65
51878;SHT31;37911;51.526;11.536;2022-12-20T12:13:38;6.65;85.95
51878;SHT31;37911;51.526;11.536;2022-12-20T12:16:46;6.59;86.22
51878;SHT31;37911;51.526;11.536;2022-12-20T12:19:54;6.71;85.78
51878;SHT31;37911;51.526;11.536;2022-12-20T12:23:04;6.69;85.75
51878;SHT31;37911;51.526;11.536;2022-12-20T12:26:16;6.77;85.52
51878;SHT31;37911;51.526;11.536;2022-12-20T12:29:21;6.73;85.57
51878;SHT31;37911;51.526;11.536;2022-12-20T12:32:32;6.65;85.73
51878;SHT31;37911;51.526;11.536;2022-12-20T12:35:50;6.61;85.85
51878;SHT31;37911;51.526;11.536;2022-12-20T12:39:29;6.62;85.84
51878;SHT31;37911;51.526;11.536;2022-12-20T12:43:01;6.69;85.61
51878;SHT31;37911;51.526;11.536;2022-12-20T12:46:10;6.69;85.81
51878;SHT31;37911;51.526;11.536;2022-12-20T12:49:17;6.65;85.71
51878;SHT31;37911;51.526;11.536;2022-12-20T12:52:28;6.61;85.90
51878;SHT31;37911;51.526;11.536;2022-12-20T12:55:44;6.61;86.38
51878;SHT31;37911;51.526;11.536;2022-12-20T12:59:22;6.49;86.57
51878;SHT31;37911;51.526;11.536;2022-12-20T13:02:33;6.39;86.96
51878;SHT31;37911;51.526;11.536;2022-12-20T13:05:39;6.29;87.07
51878;SHT31;37911;51.526;11.536;2022-12-20T13:08:47;6.14;87.25
51878;SHT31;37911;51.526;11.536;2022-12-20T13:11:53;5.98;87.67
51878;SHT31;37911;51.526;11.536;2022-12-20T13:14:59;5.90;88.06
51878;SHT31;37911;51.526;11.536;2022-12-20T13:18:20;5.77;88.44
51878;SHT31;37911;51.526;11.536;2022-12-20T13:21:31;5.68;88.61
51878;SHT31;37911;51.526;11.536;2022-12-20T13:24:52;5.63;88.80
51878;SHT31;37911;51.526;11.536;2022-12-20T13:31:32;5.56;89.61
51878;SHT31;37911;51.526;11.536;2022-12-20T13:34:38;5.80;89.72
51878;SHT31;37911;51.526;11.536;2022-12-20T13:37:51;6.18;89.25
51878;SHT31;37911;51.526;11.536;2022-12-20T13:40:56;6.45;88.20
51878;SHT31;37911;51.526;11.536;2022-12-20T13:44:09;6.33;88.28
51878;SHT31;37911;51.526;11.536;2022-12-20T13:47:31;6.31;88.47
51878;SHT31;37911;51.526;11.536;2022-12-20T13:50:38;6.31;88.38
51878;SHT31;37911;51.526;11.536;2022-12-20T13:53:50;6.33;88.16
51878;SHT31;37911;51.526;11.536;2022-12-20T13:56:54;6.68;87.10
51878;SHT31;37911;51.526;11.536;2022-12-20T14:00:03;6.80;86.36
51878;SHT31;37911;51.526;11.536;2022-12-20T14:03:18;6.93;85.70
51878;SHT31;37911;51.526;11.536;2022-12-20T14:06:23;6.94;85.33
51878;SHT31;37911;51.526;11.536;2022-12-20T14:09:30;6.83;85.47
51878;SHT31;37911;51.526;11.536;2022-12-20T14:12:35;6.90;85.23
51878;SHT31;37911;51.526;11.536;2022-12-20T14:15:39;6.90;85.19
51878;SHT31;37911;51.526;11.536;2022-12-20T14:18:50;6.75;85.36
51878;SHT31;37911;51.526;11.536;2022-12-20T14:21:53;6.79;85.40
51878;SHT31;37911;51.526;11.536;2022-12-20T14:24:57;6.79;85.65
51878;SHT31;37911;51.526;11.536;2022-12-20T14:28:00;6.79;85.92
51878;SHT31;37911;51.526;11.536;2022-12-20T14:31:06;6.90;85.81
51878;SHT31;37911;51.526;11.536;2022-12-20T14:34:17;6.97;85.54
51878;SHT31;37911;51.526;11.536;2022-12-20T14:37:29;7.03;85.49
51878;SHT31;37911;51.526;11.536;2022-12-20T14:40:39;7.23;84.94
51878;SHT31;37911;51.526;11.536;2022-12-20T14:43:43;7.32;84.50
51878;SHT31;37911;51.526;11.536;2022-12-20T14:46:47;7.46;83.46
51878;SHT31;37911;51.526;11.536;2022-12-20T14:49:57;7.48;83.30
51878;SHT31;37911;51.526;11.536;2022-12-20T14:53:01;7.50;83.13
51878;SHT31;37911;51.526;11.536;2022-12-20T14:56:13;7.51;82.62
51878;SHT31;37911;51.526;11.536;2022-12-20T14:59:22;7.47;82.84
51878;SHT31;37911;51.526;11.536;2022-12-20T15:02:38;7.28;83.15
51878;SHT31;37911;51.526;11.536;2022-12-20T15:05:49;7.24;83.58
51878;SHT31;37911;51.526;11.536;2022-12-20T15:08:52;7.13;83.70
51878;SHT31;37911;51.526;11.536;2022-12-20T15:11:56;7.01;84.14
51878;SHT31;37911;51.526;11.536;2022-12-20T15:14:59;6.97;84.51
51878;SHT31;37911;51.526;11.536;2022-12-20T15:18:09;6.89;84.87
51878;SHT31;37911;51.526;11.536;2022-12-20T15:21:19;6.82;85.13
51878;SHT31;37911;51.526;11.536;2022-12-20T15:24:27;6.77;85.29
51878;SHT31;37911;51.526;11.536;2022-12-20T15:27:31;6.83;85.32
51878;SHT31;37911;51.526;11.536;2022-12-20T15:30:34;6.73;85.41
51878;SHT31;37911;51.526;11.536;2022-12-20T15:33:38;6.71;85.60
51878;SHT31;37911;51.526;11.536;2022-12-20T15:36:44;6.61;85.85
51878;SHT31;37911;51.526;11.536;2022-12-20T15:39:48;6.62;86.02
51878;SHT31;37911;51.526;11.536;2022-12-20T15:42:51;6.63;85.80
51878;SHT31;37911;51.526;11.536;2022-12-20T15:45:54;6.61;85.71
51878;SHT31;37911;51.526;11.536;2022-12-20T15:48:59;6.56;85.71
51878;SHT31;37911;51.526;11.536;2022-12-20T15:52:05;6.53;85.85
51878;SHT31;37911;51.526;11.536;2022-12-20T15:55:09;6.57;85.44
51878;SHT31;37911;51.526;11.536;2022-12-20T15:58:12;6.63;85.15
51878;SHT31;37911;51.526;11.536;2022-12-20T16:01:20;6.76;84.95
51878;SHT31;37911;51.526;11.536;2022-12-20T16:04:25;6.66;85.03
51878;SHT31;37911;51.526;11.536;2022-12-20T16:07:31;6.61;85.32
51878;SHT31;37911;51.526;11.536;2022-12-20T16:10:34;6.73;84.89
51878;SHT31;37911;51.526;11.536;2022-12-20T16:13:38;6.63;84.97
51878;SHT31;37911;51.526;11.536;2022-12-20T16:16:41;6.59;85.14
51878;SHT31;37911;51.526;11.536;2022-12-20T16:19:46;6.75;84.57
51878;SHT31;37911;51.526;11.536;2022-12-20T16:22:52;6.75;84.52
51878;SHT31;37911;51.526;11.536;2022-12-20T16:25:56;6.76;84.59
51878;SHT31;37911;51.526;11.536;2022-12-20T16:28:59;6.71;84.76
51878;SHT31;37911;51.526;11.536;2022-12-20T16:32:04;6.66;84.70
51878;SHT31;37911;51.526;11.536;2022-12-20T16:35:22;6.56;85.10
51878;SHT31;37911;51.526;11.536;2022-12-20T16:38:30;6.56;85.06
51878;SHT31;37911;51.526;11.536;2022-12-20T16:41:35;6.43;85.48
51878;SHT31;37911;51.526;11.536;2022-12-20T16:44:38;6.52;85.40
51878;SHT31;37911;51.526;11.536;2022-12-20T16:47:44;6.50;85.61
51878;SHT31;37911;51.526;11.536;2022-12-20T16:50:47;6.53;85.33
51878;SHT31;37911;51.526;11.536;2022-12-20T16:53:54;6.53;85.02
51878;SHT31;37911;51.526;11.536;2022-12-20T16:56:58;6.59;84.80
51878;SHT31;37911;51.526;11.536;2022-12-20T17:00:02;6.61;84.68
51878;SHT31;37911;51.526;11.536;2022-12-20T17:03:06;6.61;84.56
51878;SHT31;37911;51.526;11.536;2022-12-20T17:06:09;6.65;84.55
51878;SHT31;37911;51.526;11.536;2022-12-20T17:09:16;6.57;84.79
51878;SHT31;37911;51.526;11.536;2022-12-20T17:12:21;6.46;85.07
51878;SHT31;37911;51.526;11.536;2022-12-20T17:15:26;6.49;85.23
51878;SHT31;37911;51.526;11.536;2022-12-20T17:18:30;6.68;84.48
51878;SHT31;37911;51.526;11.536;2022-12-20T17:21:35;6.63;84.58
51878;SHT31;37911;51.526;11.536;2022-12-20T17:24:41;6.75;84.25
51878;SHT31;37911;51.526;11.536;2022-12-20T17:27:44;6.83;83.84
51878;SHT31;37911;51.526;11.536;2022-12-20T17:30:49;7.01;83.07
51878;SHT31;37911;51.526;11.536;2022-12-20T17:33:53;6.92;83.17
51878;SHT31;37911;51.526;11.536;2022-12-20T17:36:57;6.87;83.54
51878;SHT31;37911;51.526;11.536;2022-12-20T17:40:04;7.06;82.80
51878;SHT31;37911;51.526;11.536;2022-12-20T17:43:08;7.13;82.41
51878;SHT31;37911;51.526;11.536;2022-12-20T17:46:13;7.13;82.62
51878;SHT31;37911;51.526;11.536;2022-12-20T17:49:16;7.06;82.51
51878;SHT31;37911;51.526;11.536;2022-12-20T17:52:20;7.03;82.58
51878;SHT31;37911;51.526;11.536;2022-12-20T17:55:27;7.06;82.52
51878;SHT31;37911;51.526;11.536;2022-12-20T17:58:31;7.10;82.54
51878;SHT31;37911;51.526;11.536;2022-12-20T18:01:34;7.04;82.71
51878;SHT31;37911;51.526;11.536;2022-12-20T18:04:38;7.17;82.30
51878;SHT31;37911;51.526;11.536;2022-12-20T18:07:50;7.18;82.09
51878;SHT31;37911;51.526;11.536;2022-12-20T18:10:57;7.11;82.47
51878;SHT31;37911;51.526;11.536;2022-12-20T18:14:01;7.24;81.95
51878;SHT31;37911;51.526;11.536;2022-12-20T18:17:04;7.20;82.05
51878;SHT31;37911;51.526;11.536;2022-12-20T18:20:09;7.14;82.14
51878;SHT31;37911;51.526;11.536;2022-12-20T18:23:12;7.18;82.22
51878;SHT31;37911;51.526;11.536;2022-12-20T18:26:20;7.06;82.46
51878;SHT31;37911;51.526;11.536;2022-12-20T18:29:23;7.01;82.50
51878;SHT31;37911;51.526;11.536;2022-12-20T18:32:27;6.92;82.90
51878;SHT31;37911;51.526;11.536;2022-12-20T18:35:31;6.85;83.11
51878;SHT31;37911;51.526;11.536;2022-12-20T18:38:35;6.80;83.37
51878;SHT31;37911;51.526;11.536;2022-12-20T18:41:41;6.85;83.09
51878;SHT31;37911;51.526;11.536;2022-12-20T18:44:45;6.76;83.31
51878;SHT31;37911;51.526;11.536;2022-12-20T18:47:48;6.68;83.72
51878;SHT31;37911;51.526;11.536;2022-12-20T18:50:51;6.69;83.69
51878;SHT31;37911;51.526;11.536;2022-12-20T18:53:56;6.57;84.01
51878;SHT31;37911;51.526;11.536;2022-12-20T18:57:02;6.71;84.00
51878;SHT31;37911;51.526;11.536;2022-12-20T19:00:08;6.65;84.11
51878;SHT31;37911;51.526;11.536;2022-12-20T19:03:12;6.75;84.01
51878;SHT31;37911;51.526;11.536;2022-12-20T19:06:16;6.79;83.77
51878;SHT31;37911;51.526;11.536;2022-12-20T19:09:20;6.86;83.50
51878;SHT31;37911;51.526;11.536;2022-12-20T19:12:27;6.96;83.11
51878;SHT31;37911;51.526;11.536;2022-12-20T19:15:30;7.01;82.94
51878;SHT31;37911;51.526;11.536;2022-12-20T19:18:34;7.10;82.63
51878;SHT31;37911;51.526;11.536;2022-12-20T19:21:39;7.08;82.40
51878;SHT31;37911;51.526;11.536;2022-12-20T19:24:46;6.99;82.84
51878;SHT31;37911;51.526;11.536;2022-12-20T19:27:52;7.06;82.61
51878;SHT31;37911;51.526;11.536;2022-12-20T19:30:55;7.06;82.57
51878;SHT31;37911;51.526;11.536;2022-12-20T19:34:00;7.16;82.31
51878;SHT31;37911;51.526;11.536;2022-12-20T19:37:04;7.14;82.39
51878;SHT31;37911;51.526;11.536;2022-12-20T19:40:08;7.11;82.47
51878;SHT31;37911;51.526;11.536;2022-12-20T19:43:14;7.06;82.44
51878;SHT31;37911;51.526;11.536;2022-12-20T19:46:18;7.08;82.44